createdAt,value
2019-01-10T00:01:59.884Z,72.57
2019-01-10T00:05:13.932Z,73.12
2019-01-10T00:08:27.649Z,72.85
2019-01-10T00:11:41.256Z,72.97
2019-01-10T00:14:54.888Z,72.53
2019-01-10T00:18:08.489Z,72.34
2019-01-10T00:21:22.108Z,72.21
2019-01-10T00:24:35.768Z,72.14
2019-01-10T00:27:49.413Z,72.19
2019-01-10T00:31:03.217Z,72.23
2019-01-10T00:34:16.890Z,72.89
2019-01-10T00:37:30.595Z,72.37
2019-01-10T00:40:44.407Z,72.44
2019-01-10T00:43:58.077Z,72.64
2019-01-10T00:47:11.954Z,72.56
2019-01-10T00:50:25.523Z,74.34
2019-01-10T00:53:39.214Z,75.09
2019-01-10T00:56:52.827Z,75.33
2019-01-10T01:00:10.313Z,75.61
2019-01-10T01:03:23.975Z,76.16
2019-01-10T01:06:37.937Z,76.40
2019-01-10T01:09:51.836Z,76.45
2019-01-10T01:13:06.272Z,76.26
2019-01-10T01:16:19.934Z,76.89
2019-01-10T01:19:33.605Z,76.88
2019-01-10T01:22:47.454Z,75.96
2019-01-10T01:26:00.990Z,77.03
2019-01-10T01:29:14.662Z,77.25
2019-01-10T01:32:28.334Z,77.36
2019-01-10T01:35:42.099Z,77.40
2019-01-10T01:38:55.658Z,77.71
2019-01-10T01:42:09.411Z,78.22
2019-01-10T01:45:23.406Z,77.62
2019-01-10T01:48:37.313Z,77.48
2019-01-10T01:51:51.458Z,77.47
2019-01-10T01:55:05.971Z,76.51
2019-01-10T01:58:19.619Z,76.49
2019-01-10T02:01:33.295Z,76.26
2019-01-10T02:04:46.840Z,76.27
2019-01-10T02:08:00.616Z,76.16
2019-01-10T02:11:14.368Z,75.39
2019-01-10T02:14:28.362Z,74.54
2019-01-10T02:17:48.908Z,75.73
2019-01-10T02:20:57.957Z,76.01
2019-01-10T02:24:12.747Z,75.52
2019-01-10T02:27:26.462Z,75.23
2019-01-10T02:30:42.268Z,74.49
2019-01-10T02:33:55.746Z,74.04
2019-01-10T02:37:09.489Z,74.16
2019-01-10T02:40:23.510Z,74.23
2019-01-10T02:43:37.238Z,74.41
2019-01-10T02:46:51.602Z,74.08
2019-01-10T02:50:07.538Z,73.97
2019-01-10T02:53:21.397Z,74.29
2019-01-10T02:56:35.124Z,74.00
2019-01-10T02:59:48.679Z,73.47
2019-01-10T03:03:02.478Z,74.17
2019-01-10T03:06:16.244Z,74.56
2019-01-10T03:09:30.179Z,74.15
2019-01-10T03:12:43.928Z,74.39
2019-01-10T03:15:57.539Z,73.81
2019-01-10T03:19:11.384Z,73.95
2019-01-10T03:26:52.764Z,73.99
2019-01-10T03:30:08.772Z,73.39
2019-01-10T03:33:23.027Z,74.27
2019-01-10T03:36:36.878Z,74.41
2019-01-10T03:39:50.997Z,73.98
2019-01-10T03:43:04.819Z,74.08
2019-01-10T03:46:18.540Z,73.20
2019-01-10T03:49:32.265Z,73.28
2019-01-10T03:52:46.267Z,72.77
2019-01-10T03:56:00.144Z,73.90
2019-01-10T03:59:13.700Z,73.68
2019-01-10T04:02:27.340Z,74.14
2019-01-10T04:05:41.097Z,74.69
2019-01-10T04:08:54.714Z,74.18
2019-01-10T04:12:08.234Z,74.84
2019-01-10T04:15:22.167Z,74.94
2019-01-10T04:18:35.873Z,74.21
2019-01-10T04:21:49.427Z,75.15
2019-01-10T04:25:04.246Z,74.61
2019-01-10T04:28:17.780Z,74.94
2019-01-10T04:31:31.333Z,74.75
2019-01-10T04:34:45.107Z,75.05
2019-01-10T04:37:58.626Z,74.86
2019-01-10T04:41:12.266Z,74.64
2019-01-10T04:44:25.800Z,74.60
2019-01-10T04:47:39.764Z,75.09
2019-01-10T04:50:53.368Z,75.05
2019-01-10T04:54:06.983Z,75.34
2019-01-10T04:57:20.988Z,74.85
2019-01-10T05:00:34.623Z,75.22
2019-01-10T05:03:48.235Z,75.11
2019-01-10T05:07:01.871Z,75.25
2019-01-10T05:10:15.648Z,74.36
2019-01-10T05:13:29.142Z,75.24
2019-01-10T05:16:42.800Z,74.87
2019-01-10T05:19:56.597Z,75.14
2019-01-10T05:23:10.271Z,75.80
2019-01-10T05:26:24.341Z,75.79
2019-01-10T05:29:38.094Z,75.76
2019-01-10T05:32:53.162Z,76.00
2019-01-10T05:36:06.916Z,75.94
2019-01-10T05:39:20.417Z,76.15
2019-01-10T05:42:34.580Z,76.24
2019-01-10T05:45:48.236Z,76.48
2019-01-10T05:49:01.900Z,75.96
2019-01-10T05:52:15.557Z,76.52
2019-01-10T05:55:29.065Z,75.71
2019-01-10T05:58:44.533Z,75.59
2019-01-10T06:01:58.158Z,76.17
2019-01-10T06:05:12.279Z,76.29
2019-01-10T06:08:25.859Z,76.34
2019-01-10T06:11:39.760Z,77.04
2019-01-10T06:14:53.412Z,76.50
2019-01-10T06:18:07.356Z,76.17
2019-01-10T06:21:20.890Z,76.36
2019-01-10T06:24:34.392Z,76.77
2019-01-10T06:27:48.220Z,76.56
2019-01-10T06:31:01.974Z,76.37
2019-01-10T06:43:02.631Z,76.21
2019-01-10T06:46:16.188Z,76.09
2019-01-10T06:49:30.714Z,76.45
2019-01-10T06:52:44.548Z,76.28
2019-01-10T06:55:58.580Z,76.86
2019-01-10T06:59:12.424Z,76.26
2019-01-10T07:02:26.390Z,76.00
2019-01-10T07:05:39.913Z,76.34
2019-01-10T07:08:53.567Z,75.88
2019-01-10T07:12:07.843Z,75.30
2019-01-10T07:15:21.734Z,75.79
2019-01-10T07:18:35.256Z,75.96
2019-01-10T07:21:57.723Z,75.55
2019-01-10T07:25:11.790Z,75.58
2019-01-10T07:28:26.363Z,74.94
2019-01-10T07:31:40.186Z,75.30
2019-01-10T07:35:00.909Z,74.93
2019-01-10T07:38:14.969Z,74.89
2019-01-10T07:41:28.987Z,75.07
2019-01-10T07:44:43.044Z,74.36
2019-01-10T07:47:57.391Z,74.19
2019-01-10T07:51:11.395Z,73.82
2019-01-10T07:54:25.212Z,74.41
2019-01-10T07:57:39.209Z,73.65
2019-01-10T08:00:54.030Z,74.48
2019-01-10T08:04:07.968Z,73.49
2019-01-10T08:07:21.653Z,74.59
2019-01-10T08:10:36.265Z,73.88
2019-01-10T08:13:50.112Z,72.68
2019-01-10T08:17:04.024Z,73.06
2019-01-10T08:20:18.143Z,71.45
2019-01-10T08:23:32.189Z,71.65
2019-01-10T08:26:46.357Z,72.68
2019-01-10T08:30:00.225Z,71.89
2019-01-10T08:33:14.112Z,72.59
2019-01-10T08:36:32.606Z,72.16
2019-01-10T08:39:43.670Z,72.35
2019-01-10T08:42:57.628Z,72.03
2019-01-10T08:46:11.399Z,72.16
2019-01-10T08:49:25.194Z,72.09
2019-01-10T08:52:39.015Z,72.40
2019-01-10T08:55:52.863Z,72.27
2019-01-10T08:59:06.876Z,70.98
2019-01-10T09:02:20.751Z,70.40
2019-01-10T09:05:34.743Z,70.75
2019-01-10T09:08:48.453Z,70.84
2019-01-10T09:12:02.330Z,70.69
2019-01-10T09:15:23.312Z,71.06
2019-01-10T09:18:31.697Z,70.58
2019-01-10T09:21:45.555Z,69.59
2019-01-10T09:24:59.202Z,68.88
2019-01-10T09:28:13.179Z,69.60
2019-01-10T09:31:26.818Z,69.23
2019-01-10T09:34:41.058Z,69.62
2019-01-10T09:37:54.874Z,69.13
2019-01-10T09:41:09.058Z,68.43
2019-01-10T09:44:22.636Z,68.28
2019-01-10T09:47:36.284Z,68.09
2019-01-10T09:50:50.018Z,68.56
2019-01-10T09:54:04.043Z,68.83
2019-01-10T09:57:18.777Z,67.99
2019-01-10T10:00:32.948Z,65.94
2019-01-10T10:03:47.027Z,65.37
2019-01-10T10:07:01.018Z,66.70
2019-01-10T10:10:16.413Z,66.56
2019-01-10T10:13:30.300Z,65.42
2019-01-10T10:16:44.234Z,65.62
2019-01-10T10:19:58.284Z,66.04
2019-01-10T10:23:14.390Z,67.48
2019-01-10T10:26:27.604Z,68.21
2019-01-10T10:29:41.183Z,67.42
2019-01-10T10:32:54.848Z,69.22
2019-01-10T10:36:08.769Z,68.12
2019-01-10T10:39:22.589Z,68.82
2019-01-10T10:42:36.771Z,68.94
2019-01-10T10:45:50.587Z,69.36
2019-01-10T10:49:04.676Z,69.08
2019-01-10T10:56:46.213Z,67.20
2019-01-10T11:00:00.329Z,68.38
2019-01-10T11:11:27.565Z,67.87
2019-01-10T11:14:41.219Z,68.83
2019-01-10T11:17:55.098Z,68.12
2019-01-10T11:21:08.946Z,67.56
2019-01-10T11:34:22.295Z,68.58
2019-01-10T11:38:23.687Z,68.06
2019-01-10T11:42:12.406Z,68.48
2019-01-10T11:55:08.824Z,67.18
2019-01-10T11:59:06.679Z,67.16
2019-01-10T12:02:45.279Z,67.01
2019-01-10T12:06:35.990Z,67.09
2019-01-10T12:16:59.167Z,65.76
2019-01-10T12:21:14.838Z,65.76
2019-01-10T14:48:01.939Z,67.24
2019-01-10T14:51:15.422Z,67.24
2019-01-10T14:54:29.205Z,67.32
2019-01-10T14:57:43.123Z,66.17
2019-01-10T15:00:56.714Z,66.47
2019-01-10T15:04:10.934Z,66.35
2019-01-10T15:07:24.645Z,66.34
2019-01-10T15:10:38.232Z,65.99
2019-01-10T15:13:51.715Z,66.06
2019-01-10T15:17:05.286Z,65.06
2019-01-10T15:20:24.315Z,65.61
2019-01-10T15:23:37.810Z,65.59
2019-01-10T15:26:51.253Z,66.43
2019-01-10T15:30:07.952Z,66.83
2019-01-10T15:33:21.847Z,66.99
2019-01-10T15:36:35.330Z,67.70
2019-01-10T15:39:49.138Z,68.68
2019-01-10T15:43:05.120Z,68.58
2019-01-10T15:46:18.707Z,68.49
2019-01-10T15:49:32.404Z,68.87
2019-01-10T15:52:46.593Z,69.27
2019-01-10T15:56:00.164Z,69.71
2019-01-10T15:59:13.672Z,70.47
2019-01-10T16:02:27.298Z,70.62
2019-01-10T16:05:40.798Z,71.20
2019-01-10T16:08:54.439Z,71.69
2019-01-10T16:12:08.263Z,72.20
2019-01-10T16:15:23.315Z,71.94
2019-01-10T16:18:36.814Z,71.92
2019-01-10T16:21:50.413Z,73.04
2019-01-10T16:25:05.178Z,73.68
2019-01-10T16:28:18.992Z,73.72
2019-01-10T16:31:32.500Z,74.03
2019-01-10T16:34:46.157Z,74.52
2019-01-10T16:38:00.243Z,74.43
2019-01-10T16:41:14.321Z,74.31
2019-01-10T16:44:27.972Z,74.32
2019-01-10T16:47:41.909Z,74.92
2019-01-10T16:50:55.618Z,74.66
2019-01-10T16:54:09.210Z,74.76
2019-01-10T16:57:23.149Z,74.83
2019-01-10T17:00:37.191Z,74.70
2019-01-10T17:03:50.780Z,74.77
2019-01-10T17:07:04.590Z,75.02
2019-01-10T17:10:18.525Z,75.64
2019-01-10T17:13:32.090Z,75.94
2019-01-10T17:16:50.135Z,75.83
2019-01-10T17:20:01.069Z,75.87
2019-01-10T17:23:14.751Z,76.28
2019-01-10T17:26:28.213Z,77.10
2019-01-10T17:29:42.060Z,76.70
2019-01-10T17:32:55.590Z,76.56
2019-01-10T17:36:09.202Z,76.33
2019-01-10T17:39:42.371Z,75.89
2019-01-10T17:42:56.452Z,75.74
2019-01-10T17:46:09.950Z,76.17
2019-01-10T17:49:23.680Z,76.19
2019-01-10T17:52:37.668Z,76.47
2019-01-10T17:55:51.414Z,76.53
2019-01-10T17:59:05.153Z,76.45
2019-01-10T18:02:18.762Z,76.17
2019-01-10T18:05:32.572Z,76.09
2019-01-10T18:08:46.249Z,75.94
2019-01-10T18:11:59.719Z,77.07
2019-01-10T18:15:15.281Z,76.57
2019-01-10T18:18:28.787Z,76.56
2019-01-10T18:21:42.695Z,76.51
2019-01-10T18:24:56.494Z,76.62
2019-01-10T18:28:10.724Z,76.06
2019-01-10T18:31:24.660Z,76.41
2019-01-10T18:34:38.462Z,76.67
2019-01-10T18:37:53.051Z,76.54
2019-01-10T18:41:06.680Z,76.12
2019-01-10T18:44:20.533Z,75.92
2019-01-10T18:47:34.010Z,76.67
2019-01-10T18:50:47.614Z,76.56
2019-01-10T18:54:01.133Z,76.95
2019-01-10T18:57:14.978Z,76.78
2019-01-10T19:00:29.799Z,76.49
2019-01-10T19:03:43.250Z,76.12
2019-01-10T19:06:56.791Z,76.81
2019-01-10T19:10:11.442Z,77.14
2019-01-10T19:13:25.052Z,78.05
2019-01-10T19:16:38.559Z,78.30
2019-01-10T19:19:52.116Z,78.42
2019-01-10T19:23:05.819Z,77.96
2019-01-10T19:26:19.446Z,78.08
2019-01-10T19:29:33.385Z,77.45
2019-01-10T19:32:47.265Z,77.20
2019-01-10T19:36:00.769Z,77.60
2019-01-10T19:39:14.332Z,78.26
2019-01-10T19:42:27.879Z,78.12
2019-01-10T19:45:41.527Z,78.40
2019-01-10T19:48:55.251Z,79.41
2019-01-10T19:52:09.298Z,79.08
2019-01-10T19:55:23.402Z,78.32
2019-01-10T19:58:36.996Z,77.79
2019-01-10T20:01:51.998Z,77.75
2019-01-10T20:05:06.373Z,77.59
2019-01-10T20:08:19.856Z,77.40
2019-01-10T20:11:33.457Z,77.16
2019-01-10T20:14:47.721Z,77.61
2019-01-10T20:18:01.413Z,78.10
2019-01-10T20:21:14.910Z,78.24
2019-01-10T20:24:28.536Z,77.73
2019-01-10T20:27:42.315Z,77.45
2019-01-10T20:30:56.906Z,77.69
2019-01-10T20:34:10.385Z,77.72
2019-01-10T20:37:24.038Z,77.81
2019-01-10T20:40:37.699Z,77.98
2019-01-10T20:43:51.205Z,78.11
2019-01-10T20:47:04.837Z,78.45
2019-01-10T20:50:18.814Z,78.41
2019-01-10T20:53:32.736Z,78.29
2019-01-10T20:56:46.214Z,78.07
2019-01-10T20:59:59.980Z,77.87
2019-01-10T21:03:13.878Z,77.38
2019-01-10T21:06:27.652Z,77.73
2019-01-10T21:09:41.216Z,77.99
2019-01-10T21:12:54.752Z,78.16
2019-01-10T21:16:08.456Z,78.24
2019-01-10T21:19:22.210Z,78.32
2019-01-10T21:22:35.931Z,78.49
2019-01-10T21:25:49.989Z,79.05
2019-01-10T21:29:03.891Z,79.72
2019-01-10T21:32:17.732Z,79.91
2019-01-10T21:35:31.642Z,80.10
2019-01-10T21:38:45.359Z,80.44
2019-01-10T21:41:58.960Z,79.94
2019-01-10T21:45:14.896Z,79.64
2019-01-10T21:48:28.389Z,80.08
2019-01-10T21:51:41.980Z,80.51
2019-01-10T21:54:55.800Z,80.15
2019-01-10T21:58:09.287Z,79.75
2019-01-10T22:01:22.853Z,79.47
2019-01-10T22:04:36.492Z,79.21
2019-01-10T22:07:50.182Z,79.06
2019-01-10T22:11:03.967Z,79.05
2019-01-10T22:14:17.443Z,79.84
2019-01-10T22:17:30.967Z,80.85
2019-01-10T22:20:44.696Z,80.62
2019-01-10T22:23:58.982Z,80.27
2019-01-10T22:27:12.463Z,79.91
2019-01-10T22:30:27.371Z,79.64
2019-01-10T22:33:41.433Z,79.47
2019-01-10T22:36:54.909Z,79.40
2019-01-10T22:40:11.171Z,79.35
2019-01-10T22:43:24.756Z,79.38
2019-01-10T22:46:38.365Z,79.12
2019-01-10T22:49:51.953Z,78.94
2019-01-10T22:53:05.567Z,78.98
2019-01-10T22:56:19.073Z,79.07
2019-01-10T22:59:32.672Z,79.05
2019-01-10T23:02:46.430Z,78.97
2019-01-10T23:06:00.342Z,78.91
2019-01-10T23:09:14.313Z,78.92
2019-01-10T23:12:32.568Z,78.93
2019-01-10T23:15:46.576Z,78.84
2019-01-10T23:19:00.577Z,78.82
2019-01-10T23:22:15.487Z,78.81
2019-01-10T23:25:29.648Z,79.24
2019-01-10T23:28:43.126Z,79.82
2019-01-10T23:31:57.002Z,79.91
2019-01-10T23:35:10.715Z,79.73
2019-01-10T23:38:24.485Z,79.47
2019-01-10T23:41:38.220Z,79.38
2019-01-10T23:44:52.054Z,79.83
2019-01-10T23:48:05.565Z,80.03
2019-01-10T23:51:19.083Z,80.53
2019-01-10T23:54:32.875Z,80.62
2019-01-10T23:57:46.757Z,80.58
